sensor_id;sensor_type;location;lat;lon;timestamp;P1;durP1;ratioP1;P2;durP2;ratioP2
72422;SDS011;60413;55.658;37.498;2023-02-11T00:01:34;24.55;;;9.13;;
72422;SDS011;60413;55.658;37.498;2023-02-11T00:04:02;26.65;;;9.85;;
72422;SDS011;60413;55.658;37.498;2023-02-11T00:06:30;20.60;;;8.40;;
72422;SDS011;60413;55.658;37.498;2023-02-11T00:08:58;26.70;;;9.10;;
72422;SDS011;60413;55.658;37.498;2023-02-11T00:11:26;25.95;;;8.40;;
72422;SDS011;60413;55.658;37.498;2023-02-11T00:13:55;18.55;;;7.20;;
72422;SDS011;60413;55.658;37.498;2023-02-11T00:16:22;26.40;;;8.50;;
72422;SDS011;60413;55.658;37.498;2023-02-11T00:18:48;28.42;;;8.48;;
72422;SDS011;60413;55.658;37.498;2023-02-11T00:21:15;25.25;;;8.32;;
72422;SDS011;60413;55.658;37.498;2023-02-11T00:23:43;26.08;;;9.82;;
72422;SDS011;60413;55.658;37.498;2023-02-11T00:26:11;23.60;;;8.32;;
72422;SDS011;60413;55.658;37.498;2023-02-11T00:28:45;30.88;;;10.00;;
72422;SDS011;60413;55.658;37.498;2023-02-11T00:31:13;22.38;;;8.65;;
72422;SDS011;60413;55.658;37.498;2023-02-11T00:33:40;21.80;;;8.18;;
72422;SDS011;60413;55.658;37.498;2023-02-11T00:36:07;19.02;;;8.32;;
72422;SDS011;60413;55.658;37.498;2023-02-11T00:38:36;29.50;;;7.90;;
72422;SDS011;60413;55.658;37.498;2023-02-11T00:41:02;21.23;;;8.35;;
72422;SDS011;60413;55.658;37.498;2023-02-11T00:43:28;22.75;;;7.47;;
72422;SDS011;60413;55.658;37.498;2023-02-11T00:45:54;23.38;;;7.15;;
72422;SDS011;60413;55.658;37.498;2023-02-11T00:48:20;20.50;;;8.15;;
72422;SDS011;60413;55.658;37.498;2023-02-11T00:50:46;25.15;;;8.32;;
72422;SDS011;60413;55.658;37.498;2023-02-11T00:53:12;20.67;;;7.95;;
72422;SDS011;60413;55.658;37.498;2023-02-11T00:55:38;21.80;;;8.27;;
72422;SDS011;60413;55.658;37.498;2023-02-11T00:58:04;23.60;;;7.80;;
72422;SDS011;60413;55.658;37.498;2023-02-11T01:00:30;19.55;;;6.00;;
72422;SDS011;60413;55.658;37.498;2023-02-11T01:02:56;16.83;;;6.40;;
72422;SDS011;60413;55.658;37.498;2023-02-11T01:05:22;15.27;;;6.28;;
72422;SDS011;60413;55.658;37.498;2023-02-11T01:07:48;19.70;;;7.30;;
72422;SDS011;60413;55.658;37.498;2023-02-11T01:10:14;15.88;;;6.50;;
72422;SDS011;60413;55.658;37.498;2023-02-11T01:12:40;22.15;;;7.03;;
72422;SDS011;60413;55.658;37.498;2023-02-11T01:15:07;20.15;;;7.25;;
72422;SDS011;60413;55.658;37.498;2023-02-11T01:17:34;17.92;;;7.40;;
72422;SDS011;60413;55.658;37.498;2023-02-11T01:20:02;28.92;;;8.38;;
72422;SDS011;60413;55.658;37.498;2023-02-11T01:22:30;21.13;;;5.82;;
72422;SDS011;60413;55.658;37.498;2023-02-11T01:24:56;20.63;;;6.70;;
72422;SDS011;60413;55.658;37.498;2023-02-11T01:27:21;18.38;;;6.65;;
72422;SDS011;60413;55.658;37.498;2023-02-11T01:29:48;19.42;;;5.57;;
72422;SDS011;60413;55.658;37.498;2023-02-11T01:32:14;20.80;;;6.43;;
72422;SDS011;60413;55.658;37.498;2023-02-11T01:34:43;24.17;;;6.03;;
72422;SDS011;60413;55.658;37.498;2023-02-11T01:37:08;19.02;;;6.38;;
72422;SDS011;60413;55.658;37.498;2023-02-11T01:39:35;18.00;;;6.22;;
72422;SDS011;60413;55.658;37.498;2023-02-11T01:42:01;13.77;;;5.15;;
72422;SDS011;60413;55.658;37.498;2023-02-11T01:44:33;22.27;;;6.35;;
72422;SDS011;60413;55.658;37.498;2023-02-11T01:47:04;21.10;;;6.25;;
72422;SDS011;60413;55.658;37.498;2023-02-11T01:49:32;20.67;;;6.15;;
72422;SDS011;60413;55.658;37.498;2023-02-11T01:52:02;14.07;;;6.00;;
72422;SDS011;60413;55.658;37.498;2023-02-11T01:54:35;16.63;;;5.30;;
72422;SDS011;60413;55.658;37.498;2023-02-11T01:57:26;16.95;;;5.10;;
72422;SDS011;60413;55.658;37.498;2023-02-11T02:05:16;16.27;;;4.72;;
72422;SDS011;60413;55.658;37.498;2023-02-11T02:08:06;14.90;;;4.22;;
72422;SDS011;60413;55.658;37.498;2023-02-11T02:10:55;20.63;;;5.57;;
72422;SDS011;60413;55.658;37.498;2023-02-11T02:13:25;12.68;;;4.43;;
72422;SDS011;60413;55.658;37.498;2023-02-11T02:15:57;14.70;;;4.63;;
72422;SDS011;60413;55.658;37.498;2023-02-11T02:21:28;13.88;;;5.18;;
72422;SDS011;60413;55.658;37.498;2023-02-11T02:24:30;17.92;;;5.63;;
72422;SDS011;60413;55.658;37.498;2023-02-11T02:32:41;14.50;;;4.63;;
72422;SDS011;60413;55.658;37.498;2023-02-11T02:37:58;11.85;;;4.75;;
72422;SDS011;60413;55.658;37.498;2023-02-11T02:41:14;16.60;;;5.15;;
72422;SDS011;60413;55.658;37.498;2023-02-11T02:43:28;16.98;;;4.93;;
72422;SDS011;60413;55.658;37.498;2023-02-11T02:45:55;12.07;;;5.20;;
72422;SDS011;60413;55.658;37.498;2023-02-11T02:48:44;9.90;;;3.17;;
72422;SDS011;60413;55.658;37.498;2023-02-11T02:51:20;12.68;;;4.65;;
72422;SDS011;60413;55.658;37.498;2023-02-11T03:08:26;14.93;;;4.32;;
72422;SDS011;60413;55.658;37.498;2023-02-11T03:10:58;13.98;;;4.15;;
72422;SDS011;60413;55.658;37.498;2023-02-11T03:13:27;11.32;;;4.03;;
72422;SDS011;60413;55.658;37.498;2023-02-11T03:16:01;11.98;;;4.30;;
72422;SDS011;60413;55.658;37.498;2023-02-11T03:18:34;10.23;;;3.88;;
72422;SDS011;60413;55.658;37.498;2023-02-11T03:21:03;17.48;;;4.05;;
72422;SDS011;60413;55.658;37.498;2023-02-11T03:23:36;13.45;;;4.28;;
72422;SDS011;60413;55.658;37.498;2023-02-11T03:28:54;16.50;;;4.00;;
72422;SDS011;60413;55.658;37.498;2023-02-11T03:31:48;18.15;;;4.43;;
72422;SDS011;60413;55.658;37.498;2023-02-11T03:34:35;11.70;;;3.50;;
72422;SDS011;60413;55.658;37.498;2023-02-11T03:39:53;9.32;;;3.92;;
72422;SDS011;60413;55.658;37.498;2023-02-11T03:42:26;14.18;;;4.70;;
72422;SDS011;60413;55.658;37.498;2023-02-11T03:45:05;8.70;;;4.20;;
72422;SDS011;60413;55.658;37.498;2023-02-11T03:47:35;14.95;;;3.92;;
72422;SDS011;60413;55.658;37.498;2023-02-11T03:50:08;15.30;;;4.07;;
72422;SDS011;60413;55.658;37.498;2023-02-11T03:52:36;13.38;;;4.10;;
72422;SDS011;60413;55.658;37.498;2023-02-11T03:55:08;9.55;;;3.65;;
72422;SDS011;60413;55.658;37.498;2023-02-11T03:57:37;7.55;;;3.33;;
72422;SDS011;60413;55.658;37.498;2023-02-11T04:00:04;15.63;;;4.80;;
72422;SDS011;60413;55.658;37.498;2023-02-11T04:02:37;11.32;;;4.50;;
72422;SDS011;60413;55.658;37.498;2023-02-11T04:05:04;13.82;;;3.90;;
72422;SDS011;60413;55.658;37.498;2023-02-11T04:07:33;9.48;;;3.75;;
72422;SDS011;60413;55.658;37.498;2023-02-11T04:09:59;13.65;;;4.72;;
72422;SDS011;60413;55.658;37.498;2023-02-11T04:12:25;16.50;;;4.57;;
72422;SDS011;60413;55.658;37.498;2023-02-11T04:14:51;10.45;;;2.78;;
72422;SDS011;60413;55.658;37.498;2023-02-11T04:17:17;12.65;;;3.50;;
72422;SDS011;60413;55.658;37.498;2023-02-11T04:19:46;13.93;;;3.75;;
72422;SDS011;60413;55.658;37.498;2023-02-11T04:22:11;11.18;;;4.05;;
72422;SDS011;60413;55.658;37.498;2023-02-11T04:24:37;13.73;;;4.10;;
72422;SDS011;60413;55.658;37.498;2023-02-11T04:27:03;18.77;;;3.67;;
72422;SDS011;60413;55.658;37.498;2023-02-11T04:29:32;12.20;;;3.88;;
72422;SDS011;60413;55.658;37.498;2023-02-11T04:31:58;11.07;;;3.90;;
72422;SDS011;60413;55.658;37.498;2023-02-11T04:34:24;13.80;;;3.20;;
72422;SDS011;60413;55.658;37.498;2023-02-11T04:36:50;13.52;;;3.97;;
72422;SDS011;60413;55.658;37.498;2023-02-11T04:39:16;16.33;;;3.58;;
72422;SDS011;60413;55.658;37.498;2023-02-11T04:41:42;10.15;;;3.22;;
72422;SDS011;60413;55.658;37.498;2023-02-11T04:44:09;9.25;;;3.42;;
72422;SDS011;60413;55.658;37.498;2023-02-11T04:46:41;11.18;;;3.20;;
72422;SDS011;60413;55.658;37.498;2023-02-11T04:49:07;13.00;;;3.13;;
72422;SDS011;60413;55.658;37.498;2023-02-11T04:51:33;9.68;;;2.97;;
72422;SDS011;60413;55.658;37.498;2023-02-11T04:53:58;8.75;;;3.22;;
72422;SDS011;60413;55.658;37.498;2023-02-11T04:56:24;10.05;;;3.20;;
72422;SDS011;60413;55.658;37.498;2023-02-11T04:58:50;10.73;;;3.40;;
72422;SDS011;60413;55.658;37.498;2023-02-11T05:01:19;10.02;;;3.08;;
72422;SDS011;60413;55.658;37.498;2023-02-11T05:03:45;8.77;;;2.90;;
72422;SDS011;60413;55.658;37.498;2023-02-11T05:06:11;8.27;;;2.75;;
72422;SDS011;60413;55.658;37.498;2023-02-11T05:08:37;10.60;;;3.20;;
72422;SDS011;60413;55.658;37.498;2023-02-11T05:11:04;15.20;;;3.88;;
72422;SDS011;60413;55.658;37.498;2023-02-11T05:13:30;9.48;;;3.35;;
72422;SDS011;60413;55.658;37.498;2023-02-11T05:15:56;10.25;;;3.63;;
72422;SDS011;60413;55.658;37.498;2023-02-11T05:18:22;10.90;;;3.15;;
72422;SDS011;60413;55.658;37.498;2023-02-11T05:20:52;9.70;;;2.95;;
72422;SDS011;60413;55.658;37.498;2023-02-11T05:23:18;11.55;;;4.93;;
72422;SDS011;60413;55.658;37.498;2023-02-11T05:25:44;13.40;;;3.78;;
72422;SDS011;60413;55.658;37.498;2023-02-11T05:28:11;22.60;;;3.63;;
72422;SDS011;60413;55.658;37.498;2023-02-11T05:30:37;10.38;;;2.65;;
72422;SDS011;60413;55.658;37.498;2023-02-11T05:33:03;11.15;;;3.05;;
72422;SDS011;60413;55.658;37.498;2023-02-11T05:35:29;10.60;;;2.95;;
72422;SDS011;60413;55.658;37.498;2023-02-11T05:37:55;9.18;;;3.22;;
72422;SDS011;60413;55.658;37.498;2023-02-11T05:40:21;10.13;;;3.17;;
72422;SDS011;60413;55.658;37.498;2023-02-11T05:42:49;10.48;;;3.65;;
72422;SDS011;60413;55.658;37.498;2023-02-11T05:45:15;11.00;;;3.45;;
72422;SDS011;60413;55.658;37.498;2023-02-11T05:47:41;12.75;;;3.70;;
72422;SDS011;60413;55.658;37.498;2023-02-11T05:50:07;9.52;;;3.92;;
72422;SDS011;60413;55.658;37.498;2023-02-11T05:52:34;10.57;;;3.10;;
72422;SDS011;60413;55.658;37.498;2023-02-11T05:55:04;16.90;;;4.20;;
72422;SDS011;60413;55.658;37.498;2023-02-11T05:57:34;8.40;;;3.58;;
72422;SDS011;60413;55.658;37.498;2023-02-11T06:00:03;10.45;;;3.92;;
72422;SDS011;60413;55.658;37.498;2023-02-11T06:02:37;13.43;;;3.80;;
72422;SDS011;60413;55.658;37.498;2023-02-11T06:05:06;11.20;;;4.35;;
72422;SDS011;60413;55.658;37.498;2023-02-11T06:07:35;13.63;;;4.55;;
72422;SDS011;60413;55.658;37.498;2023-02-11T06:10:01;15.18;;;4.60;;
72422;SDS011;60413;55.658;37.498;2023-02-11T06:12:28;10.65;;;4.10;;
72422;SDS011;60413;55.658;37.498;2023-02-11T06:14:57;12.38;;;4.53;;
72422;SDS011;60413;55.658;37.498;2023-02-11T06:17:23;11.50;;;4.72;;
72422;SDS011;60413;55.658;37.498;2023-02-11T06:19:49;14.43;;;4.82;;
72422;SDS011;60413;55.658;37.498;2023-02-11T06:22:15;11.80;;;3.88;;
72422;SDS011;60413;55.658;37.498;2023-02-11T06:24:42;12.43;;;4.38;;
72422;SDS011;60413;55.658;37.498;2023-02-11T06:27:11;14.38;;;4.22;;
72422;SDS011;60413;55.658;37.498;2023-02-11T06:29:40;13.35;;;3.92;;
72422;SDS011;60413;55.658;37.498;2023-02-11T06:32:20;12.55;;;3.80;;
72422;SDS011;60413;55.658;37.498;2023-02-11T06:34:50;15.23;;;4.32;;
72422;SDS011;60413;55.658;37.498;2023-02-11T06:37:16;13.15;;;4.82;;
72422;SDS011;60413;55.658;37.498;2023-02-11T06:39:45;14.30;;;4.40;;
72422;SDS011;60413;55.658;37.498;2023-02-11T06:42:14;12.85;;;4.00;;
72422;SDS011;60413;55.658;37.498;2023-02-11T06:44:47;12.68;;;4.78;;
72422;SDS011;60413;55.658;37.498;2023-02-11T06:47:15;17.90;;;5.72;;
72422;SDS011;60413;55.658;37.498;2023-02-11T06:49:41;8.63;;;4.13;;
72422;SDS011;60413;55.658;37.498;2023-02-11T06:52:08;10.20;;;4.25;;
72422;SDS011;60413;55.658;37.498;2023-02-11T06:54:34;16.80;;;4.53;;
72422;SDS011;60413;55.658;37.498;2023-02-11T06:57:00;12.68;;;3.60;;
72422;SDS011;60413;55.658;37.498;2023-02-11T06:59:26;11.20;;;3.53;;
72422;SDS011;60413;55.658;37.498;2023-02-11T07:01:52;14.75;;;4.20;;
72422;SDS011;60413;55.658;37.498;2023-02-11T07:04:18;10.13;;;3.92;;
72422;SDS011;60413;55.658;37.498;2023-02-11T07:06:44;12.48;;;4.57;;
72422;SDS011;60413;55.658;37.498;2023-02-11T07:09:10;17.20;;;4.30;;
72422;SDS011;60413;55.658;37.498;2023-02-11T07:11:36;14.77;;;4.38;;
72422;SDS011;60413;55.658;37.498;2023-02-11T07:14:03;10.40;;;4.05;;
72422;SDS011;60413;55.658;37.498;2023-02-11T07:16:33;15.10;;;4.13;;
72422;SDS011;60413;55.658;37.498;2023-02-11T07:19:00;9.48;;;3.85;;
72422;SDS011;60413;55.658;37.498;2023-02-11T07:21:26;14.15;;;5.25;;
72422;SDS011;60413;55.658;37.498;2023-02-11T07:23:52;9.80;;;4.70;;
72422;SDS011;60413;55.658;37.498;2023-02-11T07:26:21;14.05;;;4.90;;
72422;SDS011;60413;55.658;37.498;2023-02-11T07:28:50;14.05;;;4.75;;
72422;SDS011;60413;55.658;37.498;2023-02-11T07:31:23;11.88;;;4.40;;
72422;SDS011;60413;55.658;37.498;2023-02-11T07:33:54;14.27;;;5.10;;
72422;SDS011;60413;55.658;37.498;2023-02-11T07:36:30;17.63;;;4.97;;
72422;SDS011;60413;55.658;37.498;2023-02-11T07:38:56;10.20;;;3.80;;
72422;SDS011;60413;55.658;37.498;2023-02-11T07:41:25;12.82;;;4.95;;
72422;SDS011;60413;55.658;37.498;2023-02-11T07:43:52;16.95;;;5.00;;
72422;SDS011;60413;55.658;37.498;2023-02-11T07:46:20;12.77;;;4.43;;
72422;SDS011;60413;55.658;37.498;2023-02-11T07:48:48;13.02;;;4.30;;
72422;SDS011;60413;55.658;37.498;2023-02-11T07:51:18;18.30;;;5.25;;
72422;SDS011;60413;55.658;37.498;2023-02-11T07:53:49;12.57;;;4.25;;
72422;SDS011;60413;55.658;37.498;2023-02-11T07:56:17;12.15;;;3.88;;
72422;SDS011;60413;55.658;37.498;2023-02-11T08:01:21;11.98;;;4.60;;
72422;SDS011;60413;55.658;37.498;2023-02-11T08:03:51;16.08;;;5.07;;
72422;SDS011;60413;55.658;37.498;2023-02-11T08:06:19;18.77;;;5.80;;
72422;SDS011;60413;55.658;37.498;2023-02-11T08:08:49;18.75;;;6.22;;
72422;SDS011;60413;55.658;37.498;2023-02-11T08:11:25;14.82;;;4.90;;
72422;SDS011;60413;55.658;37.498;2023-02-11T08:13:53;12.43;;;4.57;;
72422;SDS011;60413;55.658;37.498;2023-02-11T08:16:22;12.00;;;4.80;;
72422;SDS011;60413;55.658;37.498;2023-02-11T08:18:48;16.83;;;5.07;;
72422;SDS011;60413;55.658;37.498;2023-02-11T08:21:15;11.07;;;4.35;;
72422;SDS011;60413;55.658;37.498;2023-02-11T08:23:41;17.60;;;6.68;;
72422;SDS011;60413;55.658;37.498;2023-02-11T08:26:14;16.30;;;5.00;;
72422;SDS011;60413;55.658;37.498;2023-02-11T08:31:16;12.65;;;5.10;;
72422;SDS011;60413;55.658;37.498;2023-02-11T08:33:45;15.70;;;5.10;;
72422;SDS011;60413;55.658;37.498;2023-02-11T08:36:19;14.60;;;5.18;;
72422;SDS011;60413;55.658;37.498;2023-02-11T08:38:50;17.10;;;4.95;;
72422;SDS011;60413;55.658;37.498;2023-02-11T08:41:18;14.23;;;3.92;;
72422;SDS011;60413;55.658;37.498;2023-02-11T08:43:44;10.38;;;4.03;;
72422;SDS011;60413;55.658;37.498;2023-02-11T08:46:18;10.60;;;4.33;;
72422;SDS011;60413;55.658;37.498;2023-02-11T08:48:50;14.07;;;4.70;;
72422;SDS011;60413;55.658;37.498;2023-02-11T08:51:24;11.38;;;4.65;;
72422;SDS011;60413;55.658;37.498;2023-02-11T08:56:49;10.88;;;4.60;;
72422;SDS011;60413;55.658;37.498;2023-02-11T08:59:19;11.68;;;4.00;;
72422;SDS011;60413;55.658;37.498;2023-02-11T09:01:47;14.23;;;5.13;;
72422;SDS011;60413;55.658;37.498;2023-02-11T09:04:16;19.08;;;4.43;;
72422;SDS011;60413;55.658;37.498;2023-02-11T09:06:45;15.48;;;4.53;;
72422;SDS011;60413;55.658;37.498;2023-02-11T09:09:19;12.30;;;4.30;;
72422;SDS011;60413;55.658;37.498;2023-02-11T09:11:51;15.57;;;4.95;;
72422;SDS011;60413;55.658;37.498;2023-02-11T09:14:23;13.63;;;4.80;;
72422;SDS011;60413;55.658;37.498;2023-02-11T09:16:49;13.98;;;4.97;;
72422;SDS011;60413;55.658;37.498;2023-02-11T09:19:16;12.70;;;5.18;;
72422;SDS011;60413;55.658;37.498;2023-02-11T09:21:47;12.25;;;4.30;;
72422;SDS011;60413;55.658;37.498;2023-02-11T09:24:13;12.57;;;4.90;;
72422;SDS011;60413;55.658;37.498;2023-02-11T09:26:40;18.92;;;5.80;;
72422;SDS011;60413;55.658;37.498;2023-02-11T09:29:08;6.88;;;3.13;;
72422;SDS011;60413;55.658;37.498;2023-02-11T09:31:34;12.27;;;4.40;;
72422;SDS011;60413;55.658;37.498;2023-02-11T09:34:02;9.75;;;3.72;;
72422;SDS011;60413;55.658;37.498;2023-02-11T09:36:30;16.48;;;4.88;;
72422;SDS011;60413;55.658;37.498;2023-02-11T09:38:59;12.10;;;4.32;;
72422;SDS011;60413;55.658;37.498;2023-02-11T09:44:19;16.33;;;4.22;;
72422;SDS011;60413;55.658;37.498;2023-02-11T09:46:57;13.70;;;4.80;;
72422;SDS011;60413;55.658;37.498;2023-02-11T09:49:39;14.98;;;5.03;;
72422;SDS011;60413;55.658;37.498;2023-02-11T09:54:54;14.02;;;4.65;;
72422;SDS011;60413;55.658;37.498;2023-02-11T09:57:23;13.73;;;4.53;;
72422;SDS011;60413;55.658;37.498;2023-02-11T09:59:55;22.30;;;5.55;;
72422;SDS011;60413;55.658;37.498;2023-02-11T10:02:23;18.73;;;6.28;;
72422;SDS011;60413;55.658;37.498;2023-02-11T10:05:12;18.83;;;5.72;;
72422;SDS011;60413;55.658;37.498;2023-02-11T10:11:01;13.68;;;4.15;;
72422;SDS011;60413;55.658;37.498;2023-02-11T10:16:53;11.10;;;3.65;;
72422;SDS011;60413;55.658;37.498;2023-02-11T10:19:45;12.85;;;4.38;;
72422;SDS011;60413;55.658;37.498;2023-02-11T10:22:20;15.75;;;5.32;;
72422;SDS011;60413;55.658;37.498;2023-02-11T10:24:55;10.18;;;4.30;;
72422;SDS011;60413;55.658;37.498;2023-02-11T10:27:45;16.95;;;5.05;;
72422;SDS011;60413;55.658;37.498;2023-02-11T10:31:20;16.48;;;5.00;;
72422;SDS011;60413;55.658;37.498;2023-02-11T10:33:46;11.45;;;4.80;;
72422;SDS011;60413;55.658;37.498;2023-02-11T10:36:28;15.25;;;4.63;;
72422;SDS011;60413;55.658;37.498;2023-02-11T10:39:24;19.67;;;5.82;;
72422;SDS011;60413;55.658;37.498;2023-02-11T10:42:30;12.23;;;4.43;;
72422;SDS011;60413;55.658;37.498;2023-02-11T10:45:03;15.27;;;4.72;;
72422;SDS011;60413;55.658;37.498;2023-02-11T10:47:33;11.80;;;5.05;;
72422;SDS011;60413;55.658;37.498;2023-02-11T10:53:15;21.75;;;5.07;;
72422;SDS011;60413;55.658;37.498;2023-02-11T10:55:53;17.90;;;6.05;;
72422;SDS011;60413;55.658;37.498;2023-02-11T10:58:25;9.13;;;4.47;;
72422;SDS011;60413;55.658;37.498;2023-02-11T11:00:55;14.63;;;5.90;;
72422;SDS011;60413;55.658;37.498;2023-02-11T11:03:28;17.95;;;5.90;;
72422;SDS011;60413;55.658;37.498;2023-02-11T11:06:01;15.63;;;5.93;;
72422;SDS011;60413;55.658;37.498;2023-02-11T11:08:37;22.48;;;6.53;;
72422;SDS011;60413;55.658;37.498;2023-02-11T11:11:12;13.00;;;4.80;;
72422;SDS011;60413;55.658;37.498;2023-02-11T11:13:52;9.38;;;4.43;;
72422;SDS011;60413;55.658;37.498;2023-02-11T11:24:05;11.30;;;4.35;;
72422;SDS011;60413;55.658;37.498;2023-02-11T11:26:50;13.63;;;4.97;;
72422;SDS011;60413;55.658;37.498;2023-02-11T11:29:19;13.40;;;5.03;;
72422;SDS011;60413;55.658;37.498;2023-02-11T11:31:53;16.05;;;4.70;;
72422;SDS011;60413;55.658;37.498;2023-02-11T11:34:37;22.00;;;6.32;;
72422;SDS011;60413;55.658;37.498;2023-02-11T11:37:18;17.88;;;5.30;;
72422;SDS011;60413;55.658;37.498;2023-02-11T11:40:16;16.80;;;5.78;;
72422;SDS011;60413;55.658;37.498;2023-02-11T11:43:00;17.27;;;6.00;;
72422;SDS011;60413;55.658;37.498;2023-02-11T11:45:29;16.55;;;6.72;;
72422;SDS011;60413;55.658;37.498;2023-02-11T11:48:00;18.15;;;6.15;;
72422;SDS011;60413;55.658;37.498;2023-02-11T11:51:03;16.60;;;5.90;;
72422;SDS011;60413;55.658;37.498;2023-02-11T11:53:55;17.25;;;6.78;;
72422;SDS011;60413;55.658;37.498;2023-02-11T11:56:26;11.68;;;5.03;;
72422;SDS011;60413;55.658;37.498;2023-02-11T11:59:01;15.23;;;5.68;;
72422;SDS011;60413;55.658;37.498;2023-02-11T12:01:49;15.77;;;5.53;;
72422;SDS011;60413;55.658;37.498;2023-02-11T12:16:18;14.80;;;6.15;;
72422;SDS011;60413;55.658;37.498;2023-02-11T12:21:59;14.50;;;5.47;;
72422;SDS011;60413;55.658;37.498;2023-02-11T12:24:31;18.77;;;6.45;;
72422;SDS011;60413;55.658;37.498;2023-02-11T12:39:01;21.50;;;7.05;;
72422;SDS011;60413;55.658;37.498;2023-02-11T12:45:04;11.27;;;5.80;;
72422;SDS011;60413;55.658;37.498;2023-02-11T12:47:46;19.13;;;6.45;;
72422;SDS011;60413;55.658;37.498;2023-02-11T12:55:55;17.75;;;6.22;;
72422;SDS011;60413;55.658;37.498;2023-02-11T12:58:33;15.73;;;6.03;;
72422;SDS011;60413;55.658;37.498;2023-02-11T13:01:06;21.73;;;7.47;;
72422;SDS011;60413;55.658;37.498;2023-02-11T13:06:16;16.77;;;6.43;;
72422;SDS011;60413;55.658;37.498;2023-02-11T13:08:51;14.60;;;6.30;;
72422;SDS011;60413;55.658;37.498;2023-02-11T13:11:21;19.50;;;6.35;;
72422;SDS011;60413;55.658;37.498;2023-02-11T13:13:56;15.82;;;5.15;;
72422;SDS011;60413;55.658;37.498;2023-02-11T13:16:42;21.25;;;5.97;;
72422;SDS011;60413;55.658;37.498;2023-02-11T13:19:20;21.85;;;7.15;;
72422;SDS011;60413;55.658;37.498;2023-02-11T13:22:04;20.83;;;7.03;;
72422;SDS011;60413;55.658;37.498;2023-02-11T13:35:39;20.85;;;6.93;;
72422;SDS011;60413;55.658;37.498;2023-02-11T13:40:44;15.95;;;6.28;;
72422;SDS011;60413;55.658;37.498;2023-02-11T13:43:34;19.42;;;6.55;;
72422;SDS011;60413;55.658;37.498;2023-02-11T13:46:07;19.85;;;6.10;;
72422;SDS011;60413;55.658;37.498;2023-02-11T13:48:44;19.50;;;6.40;;
72422;SDS011;60413;55.658;37.498;2023-02-11T13:51:17;14.63;;;5.88;;
72422;SDS011;60413;55.658;37.498;2023-02-11T13:54:21;21.83;;;7.53;;
72422;SDS011;60413;55.658;37.498;2023-02-11T14:00:00;18.35;;;5.95;;
72422;SDS011;60413;55.658;37.498;2023-02-11T14:02:55;21.38;;;7.65;;
72422;SDS011;60413;55.658;37.498;2023-02-11T14:19:29;26.40;;;7.60;;
72422;SDS011;60413;55.658;37.498;2023-02-11T14:40:59;20.70;;;6.55;;
72422;SDS011;60413;55.658;37.498;2023-02-11T14:43:39;25.58;;;7.47;;
72422;SDS011;60413;55.658;37.498;2023-02-11T14:46:09;28.83;;;7.53;;
72422;SDS011;60413;55.658;37.498;2023-02-11T14:48:36;24.02;;;7.07;;
72422;SDS011;60413;55.658;37.498;2023-02-11T14:51:11;25.77;;;7.93;;
72422;SDS011;60413;55.658;37.498;2023-02-11T14:53:46;22.88;;;6.90;;
72422;SDS011;60413;55.658;37.498;2023-02-11T14:56:16;30.08;;;6.75;;
72422;SDS011;60413;55.658;37.498;2023-02-11T14:58:51;21.52;;;6.25;;
72422;SDS011;60413;55.658;37.498;2023-02-11T15:03:58;20.08;;;6.22;;
72422;SDS011;60413;55.658;37.498;2023-02-11T15:09:05;24.45;;;7.68;;
72422;SDS011;60413;55.658;37.498;2023-02-11T15:11:44;30.67;;;8.55;;
72422;SDS011;60413;55.658;37.498;2023-02-11T15:14:27;20.30;;;7.03;;
72422;SDS011;60413;55.658;37.498;2023-02-11T15:16:56;24.63;;;7.03;;
72422;SDS011;60413;55.658;37.498;2023-02-11T15:22:06;17.00;;;6.43;;
72422;SDS011;60413;55.658;37.498;2023-02-11T15:24:45;24.75;;;6.95;;
72422;SDS011;60413;55.658;37.498;2023-02-11T15:27:36;26.88;;;8.48;;
72422;SDS011;60413;55.658;37.498;2023-02-11T15:30:18;28.02;;;7.82;;
72422;SDS011;60413;55.658;37.498;2023-02-11T15:32:48;17.33;;;5.65;;
72422;SDS011;60413;55.658;37.498;2023-02-11T15:35:16;18.05;;;6.30;;
72422;SDS011;60413;55.658;37.498;2023-02-11T15:37:43;15.07;;;5.75;;
72422;SDS011;60413;55.658;37.498;2023-02-11T15:42:53;11.57;;;5.05;;
72422;SDS011;60413;55.658;37.498;2023-02-11T15:47:58;23.77;;;7.13;;
72422;SDS011;60413;55.658;37.498;2023-02-11T15:55:53;20.10;;;7.57;;
72422;SDS011;60413;55.658;37.498;2023-02-11T15:58:44;22.42;;;8.73;;
72422;SDS011;60413;55.658;37.498;2023-02-11T16:01:12;19.20;;;6.85;;
72422;SDS011;60413;55.658;37.498;2023-02-11T16:03:39;22.02;;;8.27;;
72422;SDS011;60413;55.658;37.498;2023-02-11T16:06:17;20.23;;;7.70;;
72422;SDS011;60413;55.658;37.498;2023-02-11T16:08:55;19.13;;;6.47;;
72422;SDS011;60413;55.658;37.498;2023-02-11T16:11:31;30.02;;;6.78;;
72422;SDS011;60413;55.658;37.498;2023-02-11T16:13:59;24.65;;;7.68;;
72422;SDS011;60413;55.658;37.498;2023-02-11T16:16:28;32.20;;;6.00;;
72422;SDS011;60413;55.658;37.498;2023-02-11T16:19:00;19.65;;;6.38;;
72422;SDS011;60413;55.658;37.498;2023-02-11T16:21:30;22.50;;;5.78;;
72422;SDS011;60413;55.658;37.498;2023-02-11T16:24:04;26.48;;;7.53;;
72422;SDS011;60413;55.658;37.498;2023-02-11T16:31:40;19.45;;;6.32;;
72422;SDS011;60413;55.658;37.498;2023-02-11T16:34:21;19.23;;;6.18;;
72422;SDS011;60413;55.658;37.498;2023-02-11T16:36:48;22.55;;;6.95;;
72422;SDS011;60413;55.658;37.498;2023-02-11T16:39:17;18.95;;;6.38;;
72422;SDS011;60413;55.658;37.498;2023-02-11T16:41:50;19.17;;;5.90;;
72422;SDS011;60413;55.658;37.498;2023-02-11T16:44:17;15.50;;;6.57;;
72422;SDS011;60413;55.658;37.498;2023-02-11T16:46:44;13.23;;;5.75;;
72422;SDS011;60413;55.658;37.498;2023-02-11T16:49:10;19.70;;;6.72;;
72422;SDS011;60413;55.658;37.498;2023-02-11T16:51:50;28.60;;;8.43;;
72422;SDS011;60413;55.658;37.498;2023-02-11T16:54:17;19.83;;;6.68;;
72422;SDS011;60413;55.658;37.498;2023-02-11T16:56:47;22.17;;;7.53;;
72422;SDS011;60413;55.658;37.498;2023-02-11T16:59:16;23.95;;;6.70;;
72422;SDS011;60413;55.658;37.498;2023-02-11T17:01:42;21.35;;;6.30;;
72422;SDS011;60413;55.658;37.498;2023-02-11T17:04:20;12.93;;;5.05;;
72422;SDS011;60413;55.658;37.498;2023-02-11T17:06:49;28.77;;;7.40;;
72422;SDS011;60413;55.658;37.498;2023-02-11T17:09:22;14.65;;;5.28;;
72422;SDS011;60413;55.658;37.498;2023-02-11T17:11:53;18.63;;;7.15;;
72422;SDS011;60413;55.658;37.498;2023-02-11T17:14:22;19.25;;;6.03;;
72422;SDS011;60413;55.658;37.498;2023-02-11T17:16:50;23.90;;;7.03;;
72422;SDS011;60413;55.658;37.498;2023-02-11T17:19:17;28.15;;;8.27;;
72422;SDS011;60413;55.658;37.498;2023-02-11T17:21:46;25.25;;;6.22;;
72422;SDS011;60413;55.658;37.498;2023-02-11T17:24:16;19.75;;;6.75;;
72422;SDS011;60413;55.658;37.498;2023-02-11T17:26:45;27.48;;;7.15;;
72422;SDS011;60413;55.658;37.498;2023-02-11T17:29:20;15.40;;;6.95;;
72422;SDS011;60413;55.658;37.498;2023-02-11T17:31:48;16.35;;;5.88;;
72422;SDS011;60413;55.658;37.498;2023-02-11T17:34:18;18.73;;;6.38;;
72422;SDS011;60413;55.658;37.498;2023-02-11T17:36:53;23.20;;;7.55;;
72422;SDS011;60413;55.658;37.498;2023-02-11T17:39:19;17.70;;;5.78;;
72422;SDS011;60413;55.658;37.498;2023-02-11T17:41:49;19.20;;;7.57;;
72422;SDS011;60413;55.658;37.498;2023-02-11T17:44:15;16.77;;;6.10;;
72422;SDS011;60413;55.658;37.498;2023-02-11T17:46:42;17.90;;;7.07;;
72422;SDS011;60413;55.658;37.498;2023-02-11T17:49:15;21.20;;;6.45;;